Dzaoudzi, Comoros
Current Conditions -  °F | °C
As of 6:00 AM on Tuesday 23 Dec 2014 (Local Time) from FMCZ Reporting Station
Broken Clouds Broken Clouds  
Wind Chill: 26°   Ceiling: 18000
Heat Index: 28°   Visibility: 6mi
Dew Point: 24°   Wind: 0mph
Humidity: 89%   Direction: NA
Pressure: 29.85"   Gusts: NA
Location:  12.8°S, 45.28°E
Report Text: FMCZ 230300Z 00000KT 9999 FEW022 BKN180 26/24 Q1011 NOSIG
Loading
Personal Weather Stations






























Interactive Weather Map New forecast layout! Learn more

10-Day Weather Forecast

Advertisements
Track Severe Weather on mobile